Time;durP1;ratioP1;P1;durP2;ratioP2;P2;SDS_P1;SDS_P2;PMS_P1;PMS_P2;Temp;Humidity;BMP_temperature;BMP_pressure;BME280_temperature;BME280_humidity;BME280_pressure;Samples;Min_cycle;Max_cycle;Signal;HPM_P1;HPM_P2
2022/05/17 00:02:41;;;;;;;27.90;20.00;;;16.10;99.90;;;;;;4918433;29;20742;-75
2022/05/17 00:05:27;;;;;;;25.93;20.37;;;16.10;99.90;;;;;;4920525;29;20203;-73
2022/05/17 00:08:13;;;;;;;24.50;19.33;;;16.00;99.90;;;;;;4907372;29;20270;-74
2022/05/17 00:10:58;;;;;;;29.57;19.97;;;16.00;99.90;;;;;;4909473;29;20279;-74
2022/05/17 00:13:43;;;;;;;26.03;18.73;;;16.00;99.90;;;;;;4891684;29;20221;-72
2022/05/17 00:16:27;;;;;;;28.67;19.23;;;16.00;99.90;;;;;;4906027;29;20267;-73
2022/05/17 00:19:13;;;;;;;28.63;19.00;;;16.00;99.90;;;;;;4915057;29;20343;-73
2022/05/17 00:21:57;;;;;;;27.70;19.03;;;16.00;99.90;;;;;;4899885;29;20170;-73
2022/05/17 00:24:41;;;;;;;23.17;18.73;;;16.00;99.90;;;;;;4899673;29;20249;-74
2022/05/17 00:27:26;;;;;;;28.77;18.50;;;16.00;99.90;;;;;;4913009;29;20215;-73
2022/05/17 00:30:10;;;;;;;26.87;19.43;;;16.10;99.90;;;;;;4899404;29;20671;-74
2022/05/17 00:32:54;;;;;;;23.23;18.03;;;16.00;99.90;;;;;;4899424;29;20655;-74
2022/05/17 00:35:39;;;;;;;24.83;17.77;;;16.00;99.90;;;;;;4898927;29;20247;-73
2022/05/17 00:38:23;;;;;;;26.73;19.07;;;16.00;99.90;;;;;;4913499;29;20211;-74
2022/05/17 00:41:07;;;;;;;23.00;17.93;;;16.00;99.90;;;;;;4896288;29;20215;-74
2022/05/17 00:47:11;;;;;;;24.50;18.30;;;16.00;99.90;;;;;;4929637;29;20331;-72
2022/05/17 00:50:04;;;;;;;24.07;18.53;;;16.00;99.90;;;;;;4934862;29;20211;-73
2022/05/17 00:52:59;;;;;;;30.30;17.80;;;16.00;99.90;;;;;;4918253;29;20207;-73
2022/05/17 00:55:52;;;;;;;26.27;18.27;;;16.00;99.90;;;;;;4936011;29;20270;-75
2022/05/17 00:58:50;;;;;;;24.37;17.93;;;16.00;99.90;;;;;;4918527;29;20223;-74
2022/05/17 01:01:36;;;;;;;27.77;18.50;;;16.00;99.90;;;;;;4916459;29;20199;-74
2022/05/17 01:04:23;;;;;;;23.03;17.77;;;16.00;99.90;;;;;;4916807;29;20251;-73
2022/05/17 01:07:17;;;;;;;26.70;18.20;;;16.00;99.90;;;;;;4932268;29;20230;-74
2022/05/17 01:10:02;;;;;;;22.00;16.97;;;16.00;99.90;;;;;;4883345;29;20202;-74
2022/05/17 01:14:57;;;;;;;22.37;17.23;;;16.00;99.90;;;;;;4922965;29;20222;-73
2022/05/17 01:15:50;;;;;;;21.93;16.90;;;16.00;99.90;;;;;;4935546;29;20243;-72
2022/05/17 01:18:39;;;;;;;22.83;16.80;;;16.00;99.90;;;;;;4914286;29;20214;-73
2022/05/17 01:21:24;;;;;;;25.53;17.60;;;16.00;99.90;;;;;;4916138;29;20206;-73
2022/05/17 01:24:08;;;;;;;24.33;17.70;;;16.00;99.90;;;;;;4901673;29;20174;-73
2022/05/17 01:27:01;;;;;;;24.97;18.27;;;16.00;99.90;;;;;;4901226;29;20200;-74
2022/05/17 01:29:48;;;;;;;21.13;16.60;;;16.00;99.90;;;;;;4882886;29;20280;-74
2022/05/17 01:32:33;;;;;;;19.90;16.53;;;16.00;99.90;;;;;;4883492;29;20207;-74
2022/05/17 01:35:18;;;;;;;24.23;17.50;;;16.10;99.90;;;;;;4894881;29;20311;-74
2022/05/17 01:38:03;;;;;;;27.87;16.90;;;16.00;99.90;;;;;;4883001;29;20257;-74
2022/05/17 01:40:47;;;;;;;22.20;17.40;;;16.00;99.90;;;;;;4888171;29;20207;-73
2022/05/17 01:43:32;;;;;;;23.57;16.93;;;16.00;99.90;;;;;;4900075;29;20238;-72
2022/05/17 01:46:17;;;;;;;23.53;16.63;;;16.00;99.90;;;;;;4900979;29;20255;-73
2022/05/17 01:49:01;;;;;;;21.30;16.20;;;16.00;99.90;;;;;;4901754;29;20295;-74
2022/05/17 01:51:45;;;;;;;23.53;17.67;;;16.00;99.90;;;;;;4899397;29;20252;-74
2022/05/17 01:54:29;;;;;;;22.23;16.63;;;16.00;99.90;;;;;;4903853;29;20300;-73
2022/05/17 01:57:13;;;;;;;21.83;15.60;;;15.90;99.90;;;;;;4898781;29;20224;-74
2022/05/17 01:59:57;;;;;;;23.23;16.53;;;15.90;99.90;;;;;;4897174;29;20195;-74
2022/05/17 02:02:41;;;;;;;23.53;16.43;;;15.90;99.90;;;;;;4901003;29;20188;-74
2022/05/17 02:05:26;;;;;;;22.00;17.47;;;15.80;99.90;;;;;;4884836;29;20172;-74
2022/05/17 02:08:10;;;;;;;18.00;14.67;;;15.80;99.90;;;;;;4884622;29;20233;-74
2022/05/17 02:10:54;;;;;;;19.30;15.23;;;15.80;99.90;;;;;;4892573;29;20226;-74
2022/05/17 02:13:38;;;;;;;18.20;14.77;;;15.80;99.90;;;;;;4911748;29;20227;-73
2022/05/17 02:16:22;;;;;;;19.50;15.33;;;15.80;99.90;;;;;;4917458;29;20287;-74
2022/05/17 02:19:07;;;;;;;21.10;15.93;;;15.70;99.90;;;;;;4902715;29;20357;-73
2022/05/17 02:21:51;;;;;;;19.10;15.20;;;15.70;99.90;;;;;;4903066;29;20224;-73
2022/05/17 02:24:35;;;;;;;19.67;15.90;;;15.60;99.90;;;;;;4918000;29;20183;-74
2022/05/17 02:27:19;;;;;;;19.40;14.70;;;15.60;99.90;;;;;;4904049;29;20176;-74
2022/05/17 02:30:06;;;;;;;21.13;15.00;;;15.50;99.90;;;;;;4907523;29;20191;-73
2022/05/17 02:32:50;;;;;;;21.17;16.07;;;15.50;99.90;;;;;;4938274;28;20243;-75
2022/05/17 02:35:34;;;;;;;22.10;15.70;;;15.50;99.90;;;;;;4920867;29;20258;-73
2022/05/17 02:38:18;;;;;;;22.10;16.13;;;15.50;99.90;;;;;;4922439;29;20266;-72
2022/05/17 02:41:03;;;;;;;20.07;15.30;;;15.50;99.90;;;;;;4904298;29;20206;-74
2022/05/17 02:43:47;;;;;;;18.40;15.03;;;15.50;99.90;;;;;;4911426;29;20693;-74
2022/05/17 02:46:32;;;;;;;19.60;16.20;;;15.40;99.90;;;;;;4925780;29;20190;-73
2022/05/17 02:49:16;;;;;;;20.20;15.73;;;15.40;99.90;;;;;;4920266;29;20252;-74
2022/05/17 02:52:04;;;;;;;20.37;15.73;;;15.40;99.90;;;;;;4902757;29;20224;-74
2022/05/17 02:54:48;;;;;;;22.17;15.10;;;15.40;99.90;;;;;;4909511;29;20198;-73
2022/05/17 02:57:32;;;;;;;22.83;16.13;;;15.40;99.90;;;;;;4921529;29;20222;-73
2022/05/17 03:00:17;;;;;;;18.93;15.97;;;15.30;99.90;;;;;;4883644;29;20184;-73
2022/05/17 03:03:02;;;;;;;18.20;14.83;;;15.30;99.90;;;;;;4883885;29;20266;-73
2022/05/17 03:05:46;;;;;;;17.20;14.37;;;15.30;99.90;;;;;;4927206;29;20226;-73
2022/05/17 03:08:31;;;;;;;17.40;13.73;;;15.30;99.90;;;;;;4896683;29;20220;-73
2022/05/17 03:11:15;;;;;;;20.17;14.57;;;15.30;99.90;;;;;;4894021;29;20208;-74
2022/05/17 03:14:00;;;;;;;16.87;13.73;;;15.20;99.90;;;;;;4906355;29;20616;-73
2022/05/17 03:16:44;;;;;;;19.97;14.10;;;15.20;99.90;;;;;;4905632;29;20599;-74
2022/05/17 03:19:28;;;;;;;21.27;13.13;;;15.20;99.90;;;;;;4916069;29;20207;-74
2022/05/17 03:22:12;;;;;;;17.40;13.43;;;15.20;99.90;;;;;;4902083;29;20191;-73
2022/05/17 03:24:56;;;;;;;20.10;14.30;;;15.20;99.90;;;;;;4902069;29;20175;-73
2022/05/17 03:27:40;;;;;;;17.60;13.00;;;15.10;99.90;;;;;;4916005;29;20219;-73
2022/05/17 03:30:25;;;;;;;19.90;13.77;;;15.10;99.90;;;;;;4903094;29;20237;-74
2022/05/17 03:33:10;;;;;;;16.80;13.47;;;15.10;99.90;;;;;;4883268;29;20601;-73
2022/05/17 03:35:54;;;;;;;21.70;13.67;;;15.10;99.90;;;;;;4883436;29;20175;-74
2022/05/17 03:38:38;;;;;;;19.30;13.83;;;15.00;99.90;;;;;;4897267;29;20216;-73
2022/05/17 03:41:22;;;;;;;19.43;13.00;;;15.00;99.90;;;;;;4893898;29;20211;-74
2022/05/17 03:44:06;;;;;;;18.20;13.20;;;15.00;99.90;;;;;;4922873;29;20283;-73
2022/05/17 03:46:50;;;;;;;22.87;13.40;;;15.00;99.90;;;;;;4916301;29;20205;-73
2022/05/17 03:49:36;;;;;;;16.77;12.67;;;14.90;99.90;;;;;;4901588;29;20195;-73
2022/05/17 03:52:28;;;;;;;18.97;13.20;;;14.90;99.90;;;;;;4901694;29;20259;-74
2022/05/17 03:55:12;;;;;;;18.93;13.60;;;14.80;99.90;;;;;;4916131;29;20253;-74
2022/05/17 03:57:56;;;;;;;23.10;13.10;;;14.80;99.90;;;;;;4896139;29;20648;-74
2022/05/17 04:00:41;;;;;;;19.40;13.30;;;14.80;99.90;;;;;;4895909;29;20246;-73
2022/05/17 04:03:25;;;;;;;16.63;12.90;;;14.80;99.90;;;;;;4895797;29;20683;-74
2022/05/17 04:06:09;;;;;;;17.07;13.13;;;14.80;99.90;;;;;;4897124;29;20224;-74
2022/05/17 04:08:53;;;;;;;23.83;12.93;;;14.80;99.90;;;;;;4897095;29;20223;-73
2022/05/17 04:11:37;;;;;;;18.33;13.23;;;14.80;99.90;;;;;;4929379;29;20258;-74
2022/05/17 04:14:22;;;;;;;17.27;12.87;;;14.80;99.90;;;;;;4890862;29;20256;-74
2022/05/17 04:17:06;;;;;;;20.40;12.20;;;14.80;99.90;;;;;;4915993;29;20211;-74
2022/05/17 04:19:50;;;;;;;21.50;12.57;;;14.80;99.90;;;;;;4901635;29;20255;-73
2022/05/17 04:22:34;;;;;;;18.10;12.60;;;14.70;99.90;;;;;;4902038;29;20182;-73
2022/05/17 04:25:21;;;;;;;18.23;12.50;;;14.70;99.90;;;;;;4922237;29;20190;-74
2022/05/17 04:28:06;;;;;;;16.67;13.47;;;14.70;99.90;;;;;;4923930;29;20290;-74
2022/05/17 04:30:50;;;;;;;23.47;12.60;;;14.80;99.90;;;;;;4905208;29;20223;-73
2022/05/17 04:33:34;;;;;;;17.67;12.43;;;14.80;99.90;;;;;;4905313;29;20251;-73
2022/05/17 04:36:18;;;;;;;16.27;11.97;;;14.80;99.90;;;;;;4904997;29;20187;-73
2022/05/17 04:39:03;;;;;;;19.07;12.57;;;14.80;99.90;;;;;;4913356;29;20298;-74
2022/05/17 04:41:48;;;;;;;17.17;12.17;;;14.80;99.90;;;;;;4912699;29;20300;-74
2022/05/17 04:44:32;;;;;;;20.03;11.97;;;14.80;99.90;;;;;;4901140;29;20724;-72
2022/05/17 04:47:17;;;;;;;17.97;12.37;;;14.80;99.90;;;;;;4904761;29;20544;-73
2022/05/17 04:50:01;;;;;;;18.87;11.57;;;14.90;99.90;;;;;;4904682;29;20180;-73
2022/05/17 04:52:47;;;;;;;18.87;12.53;;;14.80;99.90;;;;;;4911520;29;20667;-74
2022/05/17 04:55:31;;;;;;;18.50;12.33;;;14.80;99.90;;;;;;4917426;29;20191;-74
2022/05/17 04:58:16;;;;;;;20.07;12.27;;;14.80;99.90;;;;;;4923389;29;20274;-73
2022/05/17 05:01:01;;;;;;;16.40;12.73;;;14.90;99.90;;;;;;4905177;29;20675;-73
2022/05/17 05:03:45;;;;;;;15.03;12.27;;;14.90;99.90;;;;;;4904833;29;20179;-73
2022/05/17 05:06:29;;;;;;;21.27;13.53;;;15.00;99.90;;;;;;4919291;29;20176;-73
2022/05/17 05:09:13;;;;;;;19.83;11.97;;;15.00;99.90;;;;;;4906807;29;20219;-74
2022/05/17 05:11:58;;;;;;;20.23;11.90;;;;;;;;;;4924540;29;20187;-73
2022/05/17 05:14:43;;;;;;;21.13;12.33;;;15.00;99.90;;;;;;4903199;29;20195;-74
2022/05/17 05:17:33;;;;;;;22.87;12.23;;;15.10;99.90;;;;;;4888224;29;20232;-74
2022/05/17 05:20:17;;;;;;;20.60;12.03;;;15.10;99.90;;;;;;4904084;29;20224;-73
2022/05/17 05:23:02;;;;;;;17.63;12.10;;;15.10;99.90;;;;;;4899517;29;20172;-74
2022/05/17 05:25:46;;;;;;;19.00;11.67;;;15.20;99.90;;;;;;4912051;29;20567;-73
2022/05/17 05:28:31;;;;;;;18.00;11.83;;;15.20;99.90;;;;;;4898402;29;20245;-73
2022/05/17 05:31:17;;;;;;;19.37;11.67;;;15.30;99.90;;;;;;4885343;29;20208;-72
2022/05/17 05:34:01;;;;;;;21.97;11.33;;;15.30;99.90;;;;;;4885495;29;20185;-73
2022/05/17 05:36:46;;;;;;;22.07;11.33;;;15.30;99.90;;;;;;4885037;29;20275;-73
2022/05/17 05:39:31;;;;;;;18.03;10.60;;;15.30;99.90;;;;;;4889367;29;20226;-74
2022/05/17 05:42:16;;;;;;;24.33;12.37;;;15.40;99.90;;;;;;4928641;29;20202;-73
2022/05/17 05:45:00;;;;;;;20.43;10.87;;;15.50;99.90;;;;;;4908636;29;20245;-74
2022/05/17 05:47:44;;;;;;;19.90;10.83;;;15.50;99.90;;;;;;4917356;29;20214;-74
2022/05/17 05:50:29;;;;;;;18.53;10.67;;;15.50;99.90;;;;;;4918183;29;20175;-74
2022/05/17 05:53:13;;;;;;;19.77;11.27;;;15.60;99.90;;;;;;4902757;29;20223;-74
2022/05/17 05:56:01;;;;;;;16.50;10.27;;;15.60;99.90;;;;;;4919439;29;20194;-73
2022/05/17 05:58:45;;;;;;;15.27;10.00;;;15.60;99.90;;;;;;4921816;29;20340;-74
2022/05/17 06:01:30;;;;;;;18.33;10.63;;;15.70;99.90;;;;;;4894919;29;20213;-73
2022/05/17 06:04:14;;;;;;;21.43;10.60;;;15.80;99.90;;;;;;4896459;29;20219;-73
2022/05/17 06:06:58;;;;;;;15.77;9.90;;;15.80;99.90;;;;;;4899568;29;20206;-74
2022/05/17 06:09:42;;;;;;;18.43;10.20;;;15.90;99.90;;;;;;4886767;29;20188;-74
2022/05/17 06:12:26;;;;;;;14.17;9.57;;;16.00;99.90;;;;;;4892398;29;20245;-73
2022/05/17 06:15:11;;;;;;;20.77;9.17;;;16.10;99.90;;;;;;4885951;29;20232;-74
2022/05/17 06:18:01;;;;;;;16.03;9.00;;;16.20;99.90;;;;;;4929939;29;20302;-74
2022/05/17 06:20:53;;;;;;;13.70;8.77;;;16.20;99.90;;;;;;4921941;29;20211;-74
2022/05/17 06:23:37;;;;;;;16.50;7.37;;;16.30;99.90;;;;;;4922468;29;20228;-74
2022/05/17 06:26:21;;;;;;;15.73;8.27;;;16.40;99.90;;;;;;4936497;29;20227;-74
2022/05/17 06:29:06;;;;;;;15.60;7.47;;;16.40;99.90;;;;;;4918724;29;20238;-74
2022/05/17 06:31:50;;;;;;;11.73;7.37;;;16.50;99.90;;;;;;4916382;29;20191;-74
2022/05/17 06:34:34;;;;;;;17.80;7.40;;;16.60;99.90;;;;;;4897191;29;20204;-74
2022/05/17 06:37:18;;;;;;;18.43;7.20;;;16.60;99.90;;;;;;4898203;29;20325;-73
2022/05/17 06:40:05;;;;;;;15.07;7.63;;;16.70;99.90;;;;;;4889035;29;20260;-73
2022/05/17 06:42:48;;;;;;;16.23;7.13;;;16.70;99.90;;;;;;4902380;29;20202;-73
2022/05/17 06:45:33;;;;;;;20.57;7.73;;;16.70;99.90;;;;;;4925557;29;20208;-73
2022/05/17 06:48:19;;;;;;;16.47;7.17;;;16.90;99.90;;;;;;4883832;29;20303;-74
2022/05/17 06:51:04;;;;;;;21.53;7.40;;;16.90;99.90;;;;;;4898172;29;20260;-73
2022/05/17 06:53:49;;;;;;;15.30;7.40;;;16.90;99.90;;;;;;4898049;29;20203;-73
2022/05/17 06:56:34;;;;;;;14.47;7.83;;;17.00;99.90;;;;;;4904407;29;20713;-74
2022/05/17 06:59:18;;;;;;;15.03;7.67;;;17.00;99.90;;;;;;4902089;29;20235;-74
2022/05/17 07:02:04;;;;;;;14.53;7.00;;;17.10;99.90;;;;;;4902149;29;20199;-73
2022/05/17 07:04:48;;;;;;;18.80;6.77;;;17.20;99.90;;;;;;4917055;29;20314;-74
2022/05/17 07:07:33;;;;;;;14.03;7.43;;;17.20;99.90;;;;;;4902164;29;20219;-74
2022/05/17 07:13:20;;;;;;;12.20;7.23;;;17.30;99.90;;;;;;4920076;29;20182;-73
2022/05/17 07:16:04;;;;;;;12.70;6.83;;;17.40;99.90;;;;;;4921486;29;20212;-73
2022/05/17 07:18:48;;;;;;;17.03;7.10;;;17.40;99.90;;;;;;4897607;29;20300;-74
2022/05/17 07:21:33;;;;;;;12.83;7.43;;;17.40;99.90;;;;;;4921091;29;20219;-72
2022/05/17 07:24:19;;;;;;;16.10;7.53;;;17.40;99.90;;;;;;4921008;29;20199;-74
2022/05/17 07:27:04;;;;;;;15.10;7.73;;;17.50;99.90;;;;;;4906800;29;20199;-73
2022/05/17 07:29:48;;;;;;;17.67;7.50;;;17.50;99.90;;;;;;4887150;29;20257;-73
2022/05/17 07:32:33;;;;;;;13.73;6.73;;;17.50;99.90;;;;;;4898244;29;20225;-73
2022/05/17 07:35:17;;;;;;;16.93;6.97;;;17.60;99.90;;;;;;4883718;29;20233;-74
2022/05/17 07:38:02;;;;;;;14.47;7.20;;;17.60;99.90;;;;;;4897444;29;20232;-74
2022/05/17 07:40:49;;;;;;;12.73;6.77;;;17.70;99.90;;;;;;4893535;29;20254;-73
2022/05/17 07:43:34;;;;;;;12.90;7.10;;;17.80;99.90;;;;;;4895128;29;20208;-74
2022/05/17 07:46:19;;;;;;;14.37;7.37;;;17.80;99.90;;;;;;4896794;29;20378;-74
2022/05/17 07:49:03;;;;;;;12.63;6.40;;;17.80;99.90;;;;;;4930779;29;20314;-73
2022/05/17 07:51:47;;;;;;;10.83;6.80;;;17.80;99.90;;;;;;4920917;29;20187;-73
2022/05/17 07:54:32;;;;;;;22.23;7.60;;;17.90;99.90;;;;;;4928703;29;20707;-73
2022/05/17 07:57:16;;;;;;;13.00;7.47;;;18.00;99.90;;;;;;4898422;29;20592;-73
2022/05/17 08:00:01;;;;;;;12.67;6.93;;;18.10;99.90;;;;;;4931618;29;20243;-74
2022/05/17 08:02:45;;;;;;;12.90;6.50;;;18.10;99.90;;;;;;4918766;29;20195;-74
2022/05/17 08:05:29;;;;;;;23.13;7.00;;;18.20;99.90;;;;;;4915601;29;20172;-74
2022/05/17 08:08:13;;;;;;;11.00;5.90;;;18.30;99.90;;;;;;4902446;29;20299;-73
2022/05/17 08:10:58;;;;;;;11.00;6.37;;;18.30;99.90;;;;;;4899226;29;20251;-74
2022/05/17 08:13:42;;;;;;;13.05;6.47;;;18.40;99.90;;;;;;4887562;29;20236;-75
2022/05/17 08:16:26;;;;;;;11.63;5.87;;;18.40;99.90;;;;;;4898296;29;20558;-73
2022/05/17 08:19:11;;;;;;;12.97;6.57;;;18.50;99.90;;;;;;4900400;29;20235;-74
2022/05/17 08:21:56;;;;;;;13.73;6.13;;;18.60;99.90;;;;;;4901587;29;20205;-73
2022/05/17 08:27:43;;;;;;;12.47;5.97;;;18.70;99.90;;;;;;4900084;29;20328;-73
2022/05/17 08:30:28;;;;;;;14.63;6.10;;;18.80;99.90;;;;;;4894994;29;20248;-72
2022/05/17 08:33:20;;;;;;;15.40;5.32;;;18.80;99.90;;;;;;4915116;29;20203;-74
2022/05/17 08:36:08;;;;;;;11.57;5.33;;;18.80;99.90;;;;;;4901671;29;20172;-73
2022/05/17 08:38:52;;;;;;;8.80;4.97;;;18.90;99.90;;;;;;4915396;29;20223;-73
2022/05/17 08:41:54;;;;;;;10.73;5.40;;;18.90;99.90;;;;;;4910658;29;20573;-74
2022/05/17 08:44:47;;;;;;;13.00;5.80;;;19.00;99.90;;;;;;4920481;29;20171;-72
2022/05/17 08:47:52;;;;;;;14.93;5.37;;;19.10;99.90;;;;;;4907436;29;20230;-74
2022/05/17 08:50:38;;;;;;;12.98;5.25;;;19.20;99.90;;;;;;4901613;29;20232;-74
2022/05/17 08:53:22;;;;;;;10.48;4.68;;;19.20;99.90;;;;;;4901340;29;20675;-73
2022/05/17 08:56:08;;;;;;;12.20;5.43;;;19.30;99.90;;;;;;4915461;29;20191;-74
2022/05/17 08:58:54;;;;;;;11.95;5.38;;;19.30;99.90;;;;;;4901046;29;20271;-73
2022/05/17 09:01:50;;;;;;;8.30;4.80;;;19.30;99.90;;;;;;4885644;29;20203;-74
2022/05/17 09:05:08;;;;;;;11.32;5.10;;;19.30;99.90;;;;;;4915805;29;20190;-73
2022/05/17 09:08:16;;;;;;;12.60;4.38;;;19.30;99.90;;;;;;4915733;29;20291;-75
2022/05/17 09:11:23;;;;;;;10.00;4.28;;;19.50;99.90;;;;;;4917837;29;20199;-74
2022/05/17 09:14:17;;;;;;;7.50;5.00;;;19.50;99.90;;;;;;4922356;29;20208;-75
2022/05/17 09:17:07;;;;;;;10.65;5.60;;;19.50;99.90;;;;;;4912011;29;20284;-74
2022/05/17 09:19:52;;;;;;;6.70;4.43;;;19.60;99.90;;;;;;4885835;29;20570;-74
2022/05/17 09:22:37;;;;;;;10.98;4.50;;;19.70;99.90;;;;;;4887661;29;20654;-74
2022/05/17 09:25:27;;;;;;;10.35;4.38;;;19.70;99.90;;;;;;4925183;29;20256;-74
2022/05/17 09:28:17;;;;;;;9.70;5.57;;;19.80;99.90;;;;;;4921885;29;20252;-74
2022/05/17 09:31:18;;;;;;;9.75;5.20;;;19.90;99.90;;;;;;4923006;29;20178;-74
2022/05/17 09:34:06;;;;;;;10.15;5.20;;;19.90;99.90;;;;;;4885435;29;20221;-73
2022/05/17 09:36:52;;;;;;;12.50;5.15;;;20.00;99.90;;;;;;4885592;29;20212;-73
2022/05/17 09:39:37;;;;;;;10.30;5.47;;;20.00;99.90;;;;;;4913204;29;20198;-74
2022/05/17 09:42:34;;;;;;;10.43;4.85;;;20.00;99.90;;;;;;4914721;29;20207;-74
2022/05/17 09:45:20;;;;;;;6.97;4.75;;;20.10;99.90;;;;;;4899461;29;20196;-74
2022/05/17 09:48:09;;;;;;;12.45;5.22;;;20.10;99.90;;;;;;4885778;29;20303;-74
2022/05/17 09:53:56;;;;;;;11.52;5.32;;;20.10;99.90;;;;;;4899842;29;20244;-74
2022/05/17 09:56:40;;;;;;;12.57;6.07;;;20.10;99.90;;;;;;4884985;29;20609;-74
2022/05/17 09:59:25;;;;;;;12.23;4.35;;;20.20;99.90;;;;;;4884574;29;20244;-73
2022/05/17 10:02:29;;;;;;;10.25;4.88;;;20.20;99.90;;;;;;4919530;29;20249;-74
2022/05/17 10:05:17;;;;;;;7.72;4.47;;;20.10;99.90;;;;;;4885016;29;20200;-74
2022/05/17 10:08:05;;;;;;;7.57;4.15;;;20.20;99.90;;;;;;4913520;29;20223;-75
2022/05/17 10:11:23;;;;;;;10.00;4.00;;;20.30;99.90;;;;;;4930003;29;20219;-74
2022/05/17 10:14:31;;;;;;;8.77;3.80;;;20.30;99.90;;;;;;4915490;29;20333;-75
2022/05/17 10:17:39;;;;;;;9.75;3.85;;;20.30;99.90;;;;;;4902544;29;20224;-74
2022/05/17 10:20:29;;;;;;;5.95;4.03;;;20.40;99.90;;;;;;4915579;29;20187;-74
2022/05/17 10:23:25;;;;;;;7.80;3.97;;;20.40;99.90;;;;;;4922627;29;20272;-73
2022/05/17 10:26:15;;;;;;;6.53;3.55;;;20.40;99.90;;;;;;4922752;29;20175;-75
2022/05/17 10:29:16;;;;;;;6.80;4.05;;;20.60;99.90;;;;;;4922746;29;20250;-75
2022/05/17 10:32:18;;;;;;;7.85;3.85;;;20.60;99.90;;;;;;4921122;29;20175;-73
2022/05/17 10:35:33;;;;;;;6.18;3.42;;;20.70;99.90;;;;;;4885119;29;20225;-74
2022/05/17 10:38:22;;;;;;;8.00;3.90;;;20.80;99.90;;;;;;4908178;29;20274;-74
2022/05/17 10:41:11;;;;;;;6.07;3.33;;;20.70;99.90;;;;;;4936569;29;20195;-75
2022/05/17 10:43:55;;;;;;;10.45;3.28;;;20.70;99.90;;;;;;4889699;29;20200;-74
2022/05/17 10:46:46;;;;;;;10.43;3.20;;;20.80;99.90;;;;;;4903673;29;20238;-74
2022/05/17 10:49:41;;;;;;;10.48;3.45;;;20.80;99.90;;;;;;4891277;29;20616;-75
2022/05/17 10:52:44;;;;;;;8.02;3.17;;;20.90;99.90;;;;;;4890756;29;20216;-75
2022/05/17 10:55:40;;;;;;;8.02;2.88;;;20.90;99.90;;;;;;4884109;29;20688;-73
2022/05/17 10:58:59;;;;;;;7.65;3.00;;;21.00;99.90;;;;;;4896501;29;20230;-73
2022/05/17 11:02:00;;;;;;;7.72;2.67;;;21.10;99.90;;;;;;4869012;29;20199;-72
2022/05/17 11:05:07;;;;;;;6.38;3.08;;;21.20;99.90;;;;;;4884678;29;20236;-73
2022/05/17 11:07:58;;;;;;;6.35;2.60;;;21.20;99.90;;;;;;4883359;29;20219;-73
2022/05/17 11:10:48;;;;;;;4.22;2.10;;;21.30;99.90;;;;;;4890778;29;20770;-73
2022/05/17 11:13:49;;;;;;;5.43;2.08;;;21.30;99.90;;;;;;4928356;29;20339;-73
2022/05/17 11:16:50;;;;;;;6.90;2.30;;;21.30;99.90;;;;;;4896706;29;20260;-73
2022/05/17 11:19:38;;;;;;;9.73;2.50;;;21.30;99.90;;;;;;4883373;29;20687;-74
2022/05/17 11:22:37;;;;;;;5.97;1.92;;;21.30;99.90;;;;;;4897232;29;20253;-73
2022/05/17 11:25:43;;;;;;;6.35;1.42;;;21.40;99.90;;;;;;4921093;29;20195;-74
2022/05/17 11:28:44;;;;;;;4.22;1.48;;;21.50;99.90;;;;;;4883547;29;20657;-73
2022/05/17 11:31:29;;;;;;;6.78;2.10;;;21.50;99.90;;;;;;4897944;29;20234;-73
2022/05/17 11:34:22;;;;;;;11.40;1.95;;;21.70;99.90;;;;;;4908714;29;20211;-74
2022/05/17 11:37:28;;;;;;;3.17;1.42;;;21.80;99.90;;;;;;4902135;29;20321;-74
2022/05/17 11:40:47;;;;;;;11.00;1.80;;;21.80;99.90;;;;;;4913670;29;20195;-73
2022/05/17 11:43:55;;;;;;;6.25;1.58;;;21.90;99.90;;;;;;4923215;29;20198;-74
2022/05/17 11:46:41;;;;;;;5.05;1.60;;;21.90;99.90;;;;;;4920949;29;20235;-74
2022/05/17 11:49:31;;;;;;;4.53;2.15;;;21.90;99.90;;;;;;4910096;29;20220;-73
2022/05/17 11:52:26;;;;;;;6.82;1.88;;;21.90;99.90;;;;;;4897590;29;20302;-74
2022/05/17 11:55:15;;;;;;;2.70;1.42;;;22.00;99.90;;;;;;4899572;29;20218;-73
2022/05/17 11:58:03;;;;;;;6.82;1.80;;;22.00;99.90;;;;;;4915818;29;20254;-74
2022/05/17 12:00:48;;;;;;;4.80;1.75;;;22.00;99.90;;;;;;4916139;29;20619;-74
2022/05/17 12:03:50;;;;;;;4.35;1.73;;;22.00;99.90;;;;;;4897313;29;20333;-74
2022/05/17 12:06:55;;;;;;;4.55;1.60;;;22.00;99.90;;;;;;4889176;29;20206;-73
2022/05/17 12:10:07;;;;;;;5.43;1.77;;;22.00;99.90;;;;;;4901150;29;20303;-74
2022/05/17 12:12:59;;;;;;;6.53;1.88;;;21.90;99.90;;;;;;4909398;29;20679;-73
2022/05/17 12:15:51;;;;;;;4.78;1.60;;;22.00;99.90;;;;;;4901719;29;20204;-73
2022/05/17 12:19:01;;;;;;;3.13;1.27;;;21.90;99.90;;;;;;4900872;29;20252;-74
2022/05/17 12:22:01;;;;;;;3.17;1.75;;;22.00;99.90;;;;;;4897904;29;20196;-73
2022/05/17 12:24:56;;;;;;;7.65;2.08;;;22.10;99.90;;;;;;4901773;29;20188;-73
2022/05/17 12:27:43;;;;;;;6.18;1.58;;;22.10;99.90;;;;;;4901631;29;20235;-74
2022/05/17 12:33:42;;;;;;;9.10;2.05;;;22.20;99.90;;;;;;4913529;29;20215;-73
2022/05/17 12:36:29;;;;;;;5.28;1.80;;;22.40;99.90;;;;;;4882819;29;20184;-74
2022/05/17 12:45:28;;;;;;;4.47;1.50;;;22.60;99.90;;;;;;4918187;29;20171;-74
2022/05/17 12:48:32;;;;;;;4.70;1.60;;;22.60;99.90;;;;;;4893009;29;20264;-72
2022/05/17 12:51:20;;;;;;;5.45;1.50;;;22.70;99.90;;;;;;4886264;29;20229;-74
2022/05/17 12:54:12;;;;;;;8.23;1.20;;;22.70;99.90;;;;;;4885976;29;20184;-74
2022/05/17 12:56:55;;;;;;;5.93;1.42;;;22.80;99.90;;;;;;4885815;29;20267;-73
2022/05/17 12:59:40;;;;;;;4.80;1.20;;;22.80;99.90;;;;;;4899360;29;20193;-73
2022/05/17 13:02:25;;;;;;;7.43;1.38;;;22.90;99.90;;;;;;4910403;29;20584;-74
2022/05/17 13:05:39;;;;;;;5.68;1.75;;;22.90;99.90;;;;;;4898549;29;20255;-74
2022/05/17 13:08:37;;;;;;;5.50;1.90;;;23.00;99.90;;;;;;4904529;29;20239;-73
2022/05/17 13:11:24;;;;;;;8.98;1.80;;;22.90;99.90;;;;;;4922508;29;20238;-73
2022/05/17 13:14:21;;;;;;;6.22;1.70;;;22.90;99.90;;;;;;4905785;29;20252;-74
2022/05/17 13:17:17;;;;;;;4.85;1.95;;;22.90;99.90;;;;;;4917513;29;20252;-73
2022/05/17 13:20:11;;;;;;;4.95;1.42;;;22.80;99.90;;;;;;4910239;29;20207;-74
2022/05/17 13:22:55;;;;;;;2.97;1.48;;;22.90;99.90;;;;;;4909202;29;20239;-73
2022/05/17 13:25:42;;;;;;;4.13;1.60;;;22.90;99.90;;;;;;4923466;29;20179;-74
2022/05/17 13:28:31;;;;;;;4.07;1.45;;;22.90;99.90;;;;;;4923429;29;20271;-74
2022/05/17 13:31:21;;;;;;;4.90;1.60;;;23.00;99.90;;;;;;4923014;29;20198;-74
2022/05/17 13:34:05;;;;;;;3.88;1.45;;;23.10;99.90;;;;;;4887313;29;20560;-73
2022/05/17 13:37:11;;;;;;;4.72;1.30;;;23.20;99.90;;;;;;4902495;29;20211;-74
2022/05/17 13:39:55;;;;;;;7.43;1.40;;;23.20;99.90;;;;;;4912299;29;20252;-73
2022/05/17 13:42:48;;;;;;;9.32;1.77;;;23.20;99.90;;;;;;4910454;29;20303;-72
2022/05/17 13:45:36;;;;;;;5.00;1.88;;;23.20;99.90;;;;;;4918131;29;20240;-74
2022/05/17 13:48:21;;;;;;;5.03;1.50;;;23.20;99.90;;;;;;4917878;29;20211;-73
2022/05/17 13:51:11;;;;;;;4.35;1.58;;;23.20;99.90;;;;;;4917555;29;20211;-74
2022/05/17 13:54:03;;;;;;;3.22;1.17;;;23.20;99.90;;;;;;4916995;29;20195;-74
2022/05/17 13:56:59;;;;;;;5.47;1.50;;;23.20;99.90;;;;;;4898682;29;20251;-74
2022/05/17 13:59:54;;;;;;;10.10;1.60;;;23.10;99.90;;;;;;4890498;29;20263;-73
2022/05/17 14:02:48;;;;;;;3.28;1.40;;;23.10;99.90;;;;;;4907761;29;20194;-73
2022/05/17 14:05:51;;;;;;;5.57;1.50;;;23.20;99.90;;;;;;4916120;29;20208;-74
2022/05/17 14:11:52;;;;;;;5.47;1.75;;;23.20;99.90;;;;;;4914141;29;20223;-73
2022/05/17 14:14:36;;;;;;;4.90;1.70;;;23.20;99.90;;;;;;4919321;29;20583;-74
2022/05/17 14:17:27;;;;;;;4.65;1.48;;;23.20;99.90;;;;;;4916612;29;20210;-75
2022/05/17 14:20:12;;;;;;;6.25;1.70;;;23.20;99.90;;;;;;4926377;29;20200;-74
2022/05/17 14:22:59;;;;;;;4.15;1.40;;;23.10;99.90;;;;;;4896048;29;20280;-74
2022/05/17 14:25:43;;;;;;;7.25;2.55;;;23.10;99.90;;;;;;4936928;29;20187;-74
2022/05/17 14:28:27;;;;;;;8.20;3.33;;;23.10;99.90;;;;;;4899870;29;20275;-74
2022/05/17 14:31:24;;;;;;;4.90;3.20;;;23.10;99.90;;;;;;4885388;29;20181;-74
2022/05/17 14:34:12;;;;;;;8.35;3.42;;;23.10;99.90;;;;;;4917592;29;20202;-74
2022/05/17 14:36:56;;;;;;;13.30;3.58;;;23.10;99.90;;;;;;4919283;29;20214;-73
2022/05/17 14:39:41;;;;;;;7.55;3.90;;;23.00;99.90;;;;;;4919967;29;20175;-73
2022/05/17 14:42:25;;;;;;;8.27;3.80;;;22.90;99.90;;;;;;4908682;29;20260;-74
2022/05/17 14:45:10;;;;;;;10.57;4.43;;;22.90;99.90;;;;;;4902607;29;20203;-74
2022/05/17 14:47:56;;;;;;;6.00;3.75;;;22.90;99.90;;;;;;4902674;29;20270;-73
2022/05/17 14:50:40;;;;;;;11.38;4.90;;;22.90;99.90;;;;;;4901890;29;20203;-74